Time;durP1;ratioP1;P1;durP2;ratioP2;P2;SDS_P1;SDS_P2;PMS_P1;PMS_P2;Temp;Humidity;BMP_temperature;BMP_pressure;BME280_temperature;BME280_humidity;BME280_pressure;Samples;Min_cycle;Max_cycle;Signal;HPM_P1;HPM_P2
2022/02/26 00:00:50;;;;;;;;;76.75;52.25;;;;;8.90;100.00;102924.38;6360134;22;45375;-93
2022/02/26 00:03:15;;;;;;;;;63.25;47.75;;;;;8.95;100.00;102935.25;6335185;22;45218;-93
2022/02/26 00:05:43;;;;;;;;;64.25;47.75;;;;;8.96;100.00;102941.44;6335673;22;45413;-92
2022/02/26 00:08:08;;;;;;;;;48.50;44.00;;;;;8.92;100.00;102941.16;6359507;22;47341;-92
2022/02/26 00:10:34;;;;;;;;;58.75;45.00;;;;;8.94;100.00;102941.31;6335415;22;45413;-92
2022/02/26 00:12:59;;;;;;;;;60.50;46.00;;;;;8.83;100.00;102933.41;6342979;22;45379;-90
2022/02/26 00:15:25;;;;;;;;;62.00;48.50;;;;;8.85;100.00;102938.78;6370081;22;45334;-90
2022/02/26 00:17:50;;;;;;;;;52.75;41.75;;;;;8.75;100.00;102931.81;6368701;22;48244;-90
2022/02/26 00:20:16;;;;;;;;;57.00;44.75;;;;;8.81;100.00;102941.94;6367070;22;45481;-91
2022/02/26 00:22:41;;;;;;;;;59.25;45.00;;;;;8.76;100.00;102941.50;6367120;22;45312;-92
2022/02/26 00:25:08;;;;;;;;;56.25;41.75;;;;;8.71;100.00;102941.09;6367973;22;45445;-89
2022/02/26 00:27:33;;;;;;;;;59.25;46.75;;;;;8.74;100.00;102943.06;6340030;22;47288;-91
2022/02/26 00:29:59;;;;;;;;;59.25;47.75;;;;;8.76;100.00;102957.19;6365468;22;45233;-91
2022/02/26 00:32:24;;;;;;;;;62.50;48.75;;;;;8.70;100.00;102936.66;6333369;22;45198;-92
2022/02/26 00:34:50;;;;;;;;;45.00;42.25;;;;;8.71;100.00;102937.59;6333492;22;45453;-92
2022/02/26 00:37:15;;;;;;;;;66.50;47.25;;;;;8.69;100.00;102947.91;6358957;22;47976;-93
2022/02/26 00:39:41;;;;;;;;;58.75;42.25;;;;;8.67;100.00;102948.53;6359080;22;45481;-93
2022/02/26 00:42:07;;;;;;;;;55.25;44.25;;;;;8.68;100.00;102964.41;6359342;22;45490;-92
2022/02/26 00:44:34;;;;;;;;;54.50;44.25;;;;;8.60;100.00;102958.50;6360246;22;45345;-93
2022/02/26 00:46:59;;;;;;;;;50.25;41.75;;;;;8.55;100.00;102944.03;6360132;22;47261;-93
2022/02/26 00:52:08;;;;;;;;;51.75;44.75;;;;;8.49;100.00;102936.53;6335574;22;45233;-93
2022/02/26 00:54:34;;;;;;;;;60.00;42.00;;;;;8.55;100.00;102956.19;6360121;22;45556;-92
2022/02/26 00:56:59;;;;;;;;;51.25;41.25;;;;;8.41;100.00;102947.09;6333801;22;47625;-93
2022/02/26 00:59:24;;;;;;;;;44.50;41.50;;;;;8.43;100.00;102956.91;6334305;22;45547;-93
2022/02/26 01:01:50;;;;;;;;;50.00;40.50;;;;;8.49;100.00;102967.03;6361274;22;45409;-93
2022/02/26 01:04:15;;;;;;;;;46.25;39.75;;;;;8.37;100.00;102939.00;6334158;22;45422;-93
2022/02/26 01:06:41;;;;;;;;;47.25;40.75;;;;;8.48;100.00;102973.03;6359809;22;46865;-93
2022/02/26 01:09:06;;;;;;;;;46.25;40.25;;;;;8.39;100.00;102965.28;6333992;22;45788;-93
2022/02/26 01:11:32;;;;;;;;;43.25;39.25;;;;;8.33;100.00;102946.41;6360294;22;45329;-93
2022/02/26 01:13:58;;;;;;;;;45.50;40.75;;;;;8.37;100.00;102969.47;6361104;22;45355;-93
2022/02/26 01:16:25;;;;;;;;;40.25;37.25;;;;;8.44;100.00;102968.31;6333348;22;46895;-93
2022/02/26 01:18:51;;;;;;;;;51.75;39.50;;;;;8.32;100.00;102961.22;6360120;22;45996;-93
2022/02/26 01:21:17;;;;;;;;;42.25;37.75;;;;;8.32;100.00;102965.50;6359451;22;45488;-93
2022/02/26 01:23:42;;;;;;;;;44.50;35.25;;;;;8.26;100.00;102958.03;6359783;22;45625;-92
2022/02/26 01:26:08;;;;;;;;;54.00;41.00;;;;;8.26;100.00;102968.47;6359084;22;47131;-93
2022/02/26 01:28:33;;;;;;;;;38.50;36.50;;;;;8.22;100.00;102964.66;6390023;22;44829;-93
2022/02/26 01:30:58;;;;;;;;;36.25;32.50;;;;;8.23;100.00;102976.97;6391025;22;44808;-92
2022/02/26 01:33:24;;;;;;;;;46.50;37.50;;;;;8.15;100.00;102951.81;6361472;22;45327;-93
2022/02/26 01:35:49;;;;;;;;;39.75;38.00;;;;;8.19;100.00;102972.25;6333987;22;47038;-93
2022/02/26 01:38:15;;;;;;;;;40.25;33.00;;;;;8.12;100.00;102962.91;6333391;22;45517;-93
2022/02/26 01:40:40;;;;;;;;;36.75;35.25;;;;;8.04;100.00;102951.75;6359993;22;45434;-93
2022/02/26 01:43:05;;;;;;;;;42.75;37.00;;;;;8.06;100.00;102970.22;6360344;22;45335;-93
2022/02/26 01:45:31;;;;;;;;;47.00;38.50;;;;;8.03;100.00;102973.47;6360628;22;48040;-93
2022/02/26 01:47:56;;;;;;;;;46.00;37.50;;;;;7.99;100.00;102959.97;6360416;22;45244;-92
2022/02/26 01:50:24;;;;;;;;;45.00;39.00;;;;;7.98;100.00;102969.50;6333908;22;45693;-92
2022/02/26 01:52:49;;;;;;;;;38.50;38.25;;;;;7.96;100.00;102975.38;6359411;22;45383;-93
2022/02/26 01:55:15;;;;;;;;;46.00;36.50;;;;;7.94;100.00;102981.38;6333229;22;47106;-92
2022/02/26 01:57:41;;;;;;;;;44.75;38.75;;;;;7.96;100.00;102977.97;6339606;22;45419;-93
2022/02/26 02:00:09;;;;;;;;;37.25;35.25;;;;;8.04;100.00;102982.25;6335661;22;45544;-93
2022/02/26 02:02:35;;;;;;;;;20.50;19.25;;;;;8.06;100.00;102978.06;6360685;22;45407;-92
2022/02/26 02:05:02;;;;;;;;;38.00;32.00;;;;;8.09;100.00;102977.41;6360083;22;48573;-92
2022/02/26 02:07:28;;;;;;;;;40.25;33.25;;;;;8.02;100.00;102971.59;6358944;22;45323;-93
2022/02/26 02:09:54;;;;;;;;;37.00;32.50;;;;;7.98;100.00;102972.13;6359859;22;45775;-92
2022/02/26 02:12:20;;;;;;;;;42.00;34.50;;;;;7.93;100.00;102966.47;6334079;22;45378;-92
2022/02/26 02:14:45;;;;;;;;;39.75;35.00;;;;;7.99;100.00;102979.16;6333044;22;48378;-93
2022/02/26 02:17:11;;;;;;;;;46.25;36.75;;;;;7.91;100.00;102960.16;6360231;22;45585;-93
2022/02/26 02:19:37;;;;;;;;;36.00;33.50;;;;;7.85;100.00;102953.44;6334966;22;45410;-92
2022/02/26 02:22:04;;;;;;;;;35.25;27.00;;;;;7.88;100.00;102945.91;6359146;22;45478;-93
2022/02/26 02:24:29;;;;;;;;;33.75;31.25;;;;;7.92;100.00;102963.69;6359845;22;48405;-92
2022/02/26 02:26:56;;;;;;;;;35.00;32.75;;;;;7.76;100.00;102946.59;6360203;22;45690;-93
2022/02/26 02:29:21;;;;;;;;;37.75;29.75;;;;;7.89;100.00;102963.41;6360415;22;45499;-92
2022/02/26 02:31:46;;;;;;;;;33.75;27.75;;;;;7.82;100.00;102947.16;6333344;22;45315;-92
2022/02/26 02:34:12;;;;;;;;;34.25;30.25;;;;;7.73;100.00;102940.16;6333152;22;46919;-92
2022/02/26 02:36:42;;;;;;;;;17.50;17.50;;;;;7.79;100.00;102951.19;6331758;22;45395;-93
2022/02/26 02:39:08;;;;;;;;;40.50;33.50;;;;;7.67;100.00;102943.13;6334000;22;45336;-92
2022/02/26 02:41:33;;;;;;;;;39.00;32.25;;;;;7.70;100.00;102948.66;6334957;22;45382;-92
2022/02/26 02:43:59;;;;;;;;;31.50;29.75;;;;;7.71;100.00;102961.84;6360330;22;48048;-93
2022/02/26 02:46:24;;;;;;;;;25.00;21.00;;;;;7.70;100.00;102949.56;6359950;22;45661;-92
2022/02/26 02:48:49;;;;;;;;;32.50;31.00;;;;;7.68;100.00;102958.06;6359735;22;45488;-92
2022/02/26 02:51:15;;;;;;;;;41.00;30.50;;;;;7.64;100.00;102951.59;6334599;22;45539;-92
2022/02/26 02:53:40;;;;;;;;;29.50;26.75;;;;;7.59;100.00;102956.41;6360002;22;48184;-92
2022/02/26 02:56:06;;;;;;;;;35.75;24.00;;;;;7.56;100.00;102963.94;6352481;22;45430;-94
2022/02/26 02:58:32;;;;;;;;;35.50;30.25;;;;;7.48;100.00;102944.00;6330204;22;45424;-93
2022/02/26 03:00:58;;;;;;;;;35.00;31.50;;;;;7.51;100.00;102951.22;6359437;22;45438;-93
2022/02/26 03:03:25;;;;;;;;;39.50;27.75;;;;;7.53;100.00;102952.28;6359248;22;47916;-93
2022/02/26 03:05:51;;;;;;;;;36.25;30.75;;;;;7.48;100.00;102950.16;6334846;22;45309;-93
2022/02/26 03:08:16;;;;;;;;;34.50;32.75;;;;;7.51;100.00;102941.69;6332759;22;45466;-92
2022/02/26 03:10:42;;;;;;;;;36.00;26.25;;;;;7.51;100.00;102946.00;6357739;22;45739;-92
2022/02/26 03:13:07;;;;;;;;;32.00;28.75;;;;;7.45;100.00;102936.81;6359200;22;47106;-93
2022/02/26 03:15:33;;;;;;;;;34.00;32.25;;;;;7.47;100.00;102937.84;6332944;22;45701;-92
2022/02/26 03:17:58;;;;;;;;;36.00;32.00;;;;;7.41;100.00;102925.94;6359370;22;45458;-93
2022/02/26 03:20:24;;;;;;;;;37.00;33.25;;;;;7.46;100.00;102941.28;6359329;22;45413;-92
2022/02/26 03:22:49;;;;;;;;;31.75;31.50;;;;;7.43;100.00;102940.97;6332511;22;46990;-92
2022/02/26 03:25:16;;;;;;;;;40.50;34.25;;;;;7.28;100.00;102927.38;6359409;22;45429;-93
2022/02/26 03:27:41;;;;;;;;;30.75;25.50;;;;;7.27;100.00;102941.22;6331467;22;45226;-92
2022/02/26 03:30:09;;;;;;;;;38.25;30.75;;;;;7.36;100.00;102943.78;6332441;22;45280;-92
2022/02/26 03:32:36;;;;;;;;;40.00;34.00;;;;;7.33;100.00;102938.28;6332195;22;47205;-92
2022/02/26 03:35:03;;;;;;;;;41.25;33.50;;;;;7.31;100.00;102935.53;6358866;22;45441;-93
2022/02/26 03:37:29;;;;;;;;;31.75;30.00;;;;;7.33;100.00;102938.28;6332465;22;45441;-93
2022/02/26 03:39:55;;;;;;;;;40.75;39.00;;;;;7.25;100.00;102921.88;6332943;22;45241;-92
2022/02/26 03:42:21;;;;;;;;;37.75;36.00;;;;;7.37;100.00;102945.66;6357663;22;47338;-92
2022/02/26 03:44:49;;;;;;;;;34.50;30.75;;;;;7.26;100.00;102931.56;6359358;22;45986;-92
2022/02/26 03:47:16;;;;;;;;;39.00;34.25;;;;;7.31;100.00;102938.13;6332657;22;45343;-92
2022/02/26 03:49:43;;;;;;;;;48.75;39.00;;;;;7.28;100.00;102931.69;6332252;22;45495;-92
2022/02/26 03:52:08;;;;;;;;;33.75;32.50;;;;;7.29;100.00;102937.09;6358860;22;48285;-92
2022/02/26 03:54:34;;;;;;;;;39.75;35.50;;;;;7.23;100.00;102926.97;6359387;22;45297;-92
2022/02/26 03:56:59;;;;;;;;;36.00;32.75;;;;;7.23;100.00;102939.09;6357456;22;45517;-92
2022/02/26 03:59:25;;;;;;;;;41.25;33.25;;;;;7.15;100.00;102936.69;6359641;22;45319;-92
2022/02/26 04:01:50;;;;;;;;;36.75;32.50;;;;;7.21;100.00;102938.03;6331603;22;48191;-92
2022/02/26 04:04:16;;;;;;;;;39.25;35.00;;;;;7.23;100.00;102947.84;6334652;22;45327;-93
2022/02/26 04:06:42;;;;;;;;;31.25;29.00;;;;;7.09;100.00;102930.88;6359120;22;45190;-92
2022/02/26 04:09:07;;;;;;;;;43.25;35.75;;;;;7.11;100.00;102955.44;6332806;22;45438;-91
2022/02/26 04:11:33;;;;;;;;;42.50;39.75;;;;;7.12;100.00;102970.34;6357114;22;47236;-92
2022/02/26 04:13:58;;;;;;;;;44.50;38.00;;;;;7.06;100.00;102948.84;6332706;22;45318;-92
2022/02/26 04:16:24;;;;;;;;;30.50;28.00;;;;;7.08;100.00;102949.00;6332319;22;45332;-92
2022/02/26 04:18:49;;;;;;;;;42.00;35.25;;;;;7.07;100.00;102949.78;6358930;22;45538;-92
2022/02/26 04:21:14;;;;;;;;;42.75;39.00;;;;;7.10;100.00;102953.59;6331207;22;48025;-92
2022/02/26 04:23:42;;;;;;;;;35.00;31.50;;;;;7.07;100.00;102953.31;6335212;22;45217;-92
2022/02/26 04:26:07;;;;;;;;;51.50;41.00;;;;;6.95;100.00;102945.22;6331370;22;45289;-92
2022/02/26 04:28:33;;;;;;;;;36.25;33.50;;;;;7.01;100.00;102956.25;6332786;22;45336;-93
2022/02/26 04:30:59;;;;;;;;;36.00;30.50;;;;;6.96;100.00;102954.00;6358962;22;47491;-93
2022/02/26 04:33:26;;;;;;;;;43.25;34.25;;;;;6.92;100.00;102947.53;6359194;22;46097;-92
2022/02/26 04:35:52;;;;;;;;;38.75;34.75;;;;;7.03;100.00;102970.41;6358970;22;45292;-93
2022/02/26 04:38:17;;;;;;;;;44.25;35.25;;;;;7.01;100.00;102957.97;6359306;22;45477;-92
2022/02/26 04:40:43;;;;;;;;;31.75;27.00;;;;;6.88;100.00;102938.47;6330320;22;48275;-93
2022/02/26 04:43:10;;;;;;;;;44.50;39.00;;;;;7.02;100.00;102959.78;6332183;22;45454;-92
2022/02/26 04:45:35;;;;;;;;;36.25;27.25;;;;;7.00;100.00;102957.03;6358623;22;45310;-92
2022/02/26 04:48:01;;;;;;;;;38.25;33.25;;;;;6.90;100.00;102963.06;6332737;22;45495;-93
2022/02/26 04:50:27;;;;;;;;;36.75;34.00;;;;;6.89;100.00;102965.50;6358786;22;47101;-92
2022/02/26 04:52:52;;;;;;;;;38.25;29.00;;;;;6.78;100.00;102952.34;6358690;22;45484;-92
2022/02/26 04:55:18;;;;;;;;;37.25;33.50;;;;;6.84;100.00;102966.75;6358929;22;45451;-93
2022/02/26 04:57:44;;;;;;;;;38.75;33.25;;;;;6.79;100.00;102963.72;6367410;22;45472;-92
2022/02/26 05:00:10;;;;;;;;;37.75;34.00;;;;;6.72;100.00;102950.84;6388434;22;47042;-93
2022/02/26 05:02:37;;;;;;;;;39.00;33.50;;;;;6.74;100.00;102950.22;6388217;22;44795;-93
2022/02/26 05:05:02;;;;;;;;;50.00;40.25;;;;;6.77;100.00;102960.03;6389923;22;44762;-91
2022/02/26 05:07:28;;;;;;;;;42.00;36.25;;;;;6.61;100.00;102948.09;6344993;22;45230;-92
2022/02/26 05:09:53;;;;;;;;;41.50;33.25;;;;;6.62;100.00;102949.97;6359401;22;47074;-92
2022/02/26 05:12:18;;;;;;;;;37.75;35.75;;;;;6.58;100.00;102939.97;6357554;22;45827;-92
2022/02/26 05:14:44;;;;;;;;;40.75;34.00;;;;;6.62;100.00;102944.75;6333029;22;45306;-91
2022/02/26 05:17:10;;;;;;;;;38.75;35.50;;;;;6.62;100.00;102955.19;6359360;22;45206;-93
2022/02/26 05:19:35;;;;;;;;;37.50;33.00;;;;;6.50;100.00;102938.28;6332952;22;47344;-92
2022/02/26 05:22:01;;;;;;;;;44.75;38.25;;;;;6.60;100.00;102954.09;6331587;22;45261;-92
2022/02/26 05:24:27;;;;;;;;;33.25;32.50;;;;;6.51;100.00;102946.28;6333136;22;45539;-92
2022/02/26 05:26:52;;;;;;;;;36.50;33.50;;;;;6.58;100.00;102953.00;6357813;22;45415;-92
2022/02/26 05:29:19;;;;;;;;;40.25;36.50;;;;;6.55;100.00;102951.03;6359353;22;46957;-92
2022/02/26 05:31:45;;;;;;;;;39.00;32.00;;;;;6.62;100.00;102959.47;6358700;22;45425;-92
2022/02/26 05:34:10;;;;;;;;;37.75;34.50;;;;;6.59;100.00;102962.69;6360302;22;45860;-92
2022/02/26 05:36:35;;;;;;;;;38.25;32.00;;;;;6.55;100.00;102965.75;6360670;22;45617;-92
2022/02/26 05:39:01;;;;;;;;;35.50;33.50;;;;;6.51;100.00;102955.81;6335863;22;46269;-92
2022/02/26 05:41:26;;;;;;;;;41.25;37.00;;;;;6.48;100.00;102956.41;6332309;22;45425;-92
2022/02/26 05:43:51;;;;;;;;;47.00;39.75;;;;;6.50;100.00;102960.09;6334051;22;45265;-92
2022/02/26 05:46:17;;;;;;;;;37.50;36.50;;;;;6.45;100.00;102954.44;6360551;22;45239;-92
2022/02/26 05:48:42;;;;;;;;;49.50;40.75;;;;;6.53;100.00;102968.22;6360657;22;47989;-92
2022/02/26 05:51:07;;;;;;;;;34.25;32.50;;;;;6.41;100.00;102948.78;6335289;22;45324;-92
2022/02/26 05:53:33;;;;;;;;;51.75;42.75;;;;;6.41;100.00;102948.78;6336652;22;45279;-92
2022/02/26 05:55:58;;;;;;;;;44.00;40.00;;;;;6.45;100.00;102957.03;6358982;22;45694;-93
2022/02/26 05:58:24;;;;;;;;;55.25;44.25;;;;;6.45;100.00;102962.25;6335659;22;46246;-92
2022/02/26 06:00:49;;;;;;;;;45.00;39.75;;;;;6.40;100.00;102959.97;6359994;22;45380;-93
2022/02/26 06:03:18;;;;;;;;;44.25;37.25;;;;;6.48;100.00;102962.56;6360949;22;45478;-92
2022/02/26 06:05:44;;;;;;;;;53.50;40.75;;;;;6.35;100.00;102951.69;6333839;22;45494;-93
2022/02/26 06:08:09;;;;;;;;;44.75;38.50;;;;;6.22;100.00;102941.72;6361138;22;47980;-93
2022/02/26 06:10:34;;;;;;;;;48.00;38.75;;;;;6.30;100.00;102965.97;6360604;22;46018;-92
2022/02/26 06:13:00;;;;;;;;;45.00;39.75;;;;;6.27;100.00;102956.16;6332357;22;45399;-92
2022/02/26 06:15:26;;;;;;;;;41.75;37.50;;;;;6.24;100.00;102953.22;6333948;22;45374;-93
2022/02/26 06:17:51;;;;;;;;;44.25;37.50;;;;;6.16;100.00;102947.25;6360192;22;47118;-93
2022/02/26 06:20:17;;;;;;;;;43.50;36.50;;;;;6.24;100.00;102958.44;6335890;22;45252;-92
2022/02/26 06:22:43;;;;;;;;;50.25;42.00;;;;;6.22;100.00;102968.72;6335727;22;45236;-92
2022/02/26 06:25:09;;;;;;;;;44.50;38.50;;;;;6.23;100.00;102965.38;6360878;22;45327;-92
2022/02/26 06:27:38;;;;;;;;;40.50;33.25;;;;;6.24;100.00;102974.09;6331997;22;48499;-92
2022/02/26 06:30:06;;;;;;;;;42.75;36.00;;;;;6.18;100.00;102964.00;6333491;22;45573;-92
2022/02/26 06:32:31;;;;;;;;;40.25;35.50;;;;;6.20;100.00;102972.88;6359765;22;45693;-92
2022/02/26 06:34:56;;;;;;;;;40.25;35.25;;;;;6.18;100.00;102971.81;6336260;22;45355;-92
2022/02/26 06:37:22;;;;;;;;;40.25;32.00;;;;;6.17;100.00;102972.56;6333212;22;47062;-93
2022/02/26 06:39:47;;;;;;;;;36.25;31.50;;;;;6.15;100.00;102971.50;6360626;22;45747;-92
2022/02/26 06:42:13;;;;;;;;;32.75;32.25;;;;;6.11;100.00;102959.84;6331611;22;45324;-93
2022/02/26 06:44:38;;;;;;;;;41.25;35.50;;;;;6.21;100.00;102971.19;6333805;22;45454;-93
2022/02/26 06:47:04;;;;;;;;;37.25;30.50;;;;;6.19;100.00;102968.41;6359856;22;48006;-92
2022/02/26 06:49:29;;;;;;;;;28.75;24.75;;;;;6.26;100.00;102978.69;6334087;22;45424;-92
2022/02/26 06:51:55;;;;;;;;;34.25;29.25;;;;;6.20;100.00;102959.84;6359620;22;45403;-92
2022/02/26 06:54:20;;;;;;;;;30.50;27.75;;;;;6.30;100.00;102982.53;6360593;22;45324;-93
2022/02/26 06:56:45;;;;;;;;;25.25;24.50;;;;;6.35;100.00;102989.13;6358479;22;47070;-93
2022/02/26 06:59:11;;;;;;;;;33.50;25.25;;;;;6.39;100.00;102985.13;6360358;22;45315;-94
2022/02/26 07:01:36;;;;;;;;;40.75;27.00;;;;;6.42;100.00;102977.59;6333391;22;45440;-93
2022/02/26 07:04:02;;;;;;;;;26.50;25.75;;;;;6.37;100.00;102963.19;6360545;22;45423;-93
2022/02/26 07:06:28;;;;;;;;;26.00;24.75;;;;;6.46;100.00;102973.63;6359898;22;47428;-88
2022/02/26 07:08:53;;;;;;;;;23.75;18.50;;;;;6.51;100.00;102969.78;6333775;22;45379;-88
2022/02/26 07:11:19;;;;;;;;;30.25;28.50;;;;;6.64;100.00;102977.13;6329806;22;45449;-88
2022/02/26 07:13:44;;;;;;;;;28.75;24.75;;;;;6.67;100.00;102979.09;6332102;22;45249;-88
2022/02/26 07:16:10;;;;;;;;;31.25;27.00;;;;;6.72;100.00;102974.34;6331661;22;47177;-88
2022/02/26 07:18:35;;;;;;;;;32.25;24.25;;;;;6.76;100.00;102979.06;6331849;22;45380;-88
2022/02/26 07:21:00;;;;;;;;;30.50;25.25;;;;;6.86;100.00;102979.19;6333233;22;45378;-87
2022/02/26 07:23:26;;;;;;;;;26.00;23.50;;;;;6.96;100.00;102972.28;6331929;22;45606;-91
2022/02/26 07:25:51;;;;;;;;;24.00;20.50;;;;;7.04;100.00;102966.06;6329350;22;47378;-93
2022/02/26 07:28:16;;;;;;;;;35.75;27.25;;;;;7.13;100.00;102973.88;6358714;22;45315;-92
2022/02/26 07:30:42;;;;;;;;;26.75;22.00;;;;;7.23;100.00;102981.81;6331942;22;45372;-93
2022/02/26 07:33:09;;;;;;;;;22.25;21.00;;;;;7.32;100.00;102970.41;6332786;22;45304;-93
2022/02/26 07:35:35;;;;;;;;;20.50;20.50;;;;;7.33;100.00;102959.16;6358643;22;47593;-91
2022/02/26 07:38:02;;;;;;;;;23.50;18.25;;;;;7.41;100.00;102965.13;6333136;22;45249;-91
2022/02/26 07:40:28;;;;;;;;;10.50;10.00;;;;;7.48;100.00;102965.84;6333040;22;45310;-90
2022/02/26 07:42:53;;;;;;;;;25.50;22.50;;;;;7.59;100.00;102968.56;6331330;22;45417;-92
2022/02/26 07:45:19;;;;;;;;;24.50;23.00;;;;;7.60;100.00;102966.06;6360137;22;45917;-91
2022/02/26 07:47:44;;;;;;;;;23.00;23.00;;;;;7.74;100.00;102957.69;6334127;22;45292;-91
2022/02/26 07:50:10;;;;;;;;;26.75;22.50;;;;;7.78;100.00;102960.72;6334845;22;45410;-91
2022/02/26 07:52:35;;;;;;;;;31.25;27.75;;;;;7.90;100.00;102971.41;6332527;22;45556;-90
2022/02/26 07:55:02;;;;;;;;;28.50;24.50;;;;;8.09;100.00;102982.66;6333704;22;48165;-91
2022/02/26 07:57:28;;;;;;;;;32.00;25.75;;;;;8.07;100.00;102972.03;6331463;22;45738;-92
2022/02/26 07:59:54;;;;;;;;;29.25;25.00;;;;;8.14;100.00;102982.28;6334757;22;45297;-93
2022/02/26 08:02:19;;;;;;;;;28.25;23.25;;;;;8.17;100.00;102973.78;6334963;22;45274;-89
2022/02/26 08:04:44;;;;;;;;;33.00;23.50;;;;;8.24;100.00;102968.34;6335420;22;45508;-93
2022/02/26 08:07:12;;;;;;;;;29.75;28.00;;;;;8.32;100.00;102968.13;6332420;22;45454;-89
2022/02/26 08:09:37;;;;;;;;;21.75;21.75;;;;;8.45;100.00;102980.63;6333836;22;45443;-88
2022/02/26 08:12:03;;;;;;;;;28.50;26.25;;;;;8.53;100.00;102978.72;6329519;22;45270;-91
2022/02/26 08:14:29;;;;;;;;;27.00;24.75;;;;;8.60;100.00;102987.28;6329972;22;48110;-90
2022/02/26 08:16:54;;;;;;;;;23.75;22.75;;;;;8.74;100.00;102990.19;6332233;22;45420;-90
2022/02/26 08:19:19;;;;;;;;;25.25;20.75;;;;;8.83;100.00;102987.50;6334198;22;45494;-90
2022/02/26 08:21:44;;;;;;;;;22.25;20.75;;;;;8.94;100.00;102981.50;6332381;22;45320;-90
2022/02/26 08:24:12;;;;;;;;;23.25;22.00;;;;;9.02;100.00;102990.03;6330850;22;47129;-90
2022/02/26 08:26:37;;;;;;;;;22.00;20.00;;;;;9.09;100.00;102978.41;6332167;22;45239;-90
2022/02/26 08:29:03;;;;;;;;;20.00;17.50;;;;;9.21;100.00;102975.00;6336365;22;45476;-90
2022/02/26 08:31:28;;;;;;;;;23.00;22.00;;;;;9.28;100.00;102972.13;6345254;22;45249;-90
2022/02/26 08:33:53;;;;;;;;;22.25;18.50;;;;;9.44;100.00;102986.56;6352190;22;45196;-90
2022/02/26 08:36:19;;;;;;;;;20.25;18.75;;;;;9.48;100.00;102986.94;6354232;22;45187;-90
2022/02/26 08:38:44;;;;;;;;;21.50;17.25;;;;;9.62;100.00;102987.22;6346612;22;45201;-91
2022/02/26 08:41:09;;;;;;;;;14.25;11.50;;;;;9.75;100.00;102981.31;6333860;22;45363;-89
2022/02/26 08:43:35;;;;;;;;;10.00;9.00;;;;;9.83;100.00;102980.28;6333097;22;45462;-90
2022/02/26 08:46:00;;;;;;;;;15.75;11.50;;;;;9.92;100.00;102987.09;6329076;22;45860;-90
2022/02/26 08:48:25;;;;;;;;;15.50;12.00;;;;;10.05;100.00;102999.53;6334554;22;45260;-90
2022/02/26 08:50:52;;;;;;;;;12.50;10.00;;;;;10.09;100.00;102974.47;6337078;22;45219;-90
2022/02/26 08:53:17;;;;;;;;;14.25;8.25;;;;;10.23;100.00;102988.75;6332615;22;47060;-90
2022/02/26 08:55:43;;;;;;;;;9.50;6.75;;;;;10.26;100.00;102978.47;6332193;22;45754;-89
2022/02/26 08:58:08;;;;;;;;;9.00;9.00;;;;;10.35;100.00;102975.72;6358236;22;45768;-91
2022/02/26 09:00:34;;;;;;;;;10.75;9.75;;;;;10.43;100.00;102981.59;6333851;22;45382;-91
2022/02/26 09:03:00;;;;;;;;;10.50;7.00;;;;;10.45;100.00;102973.06;6358662;22;47038;-90
2022/02/26 09:05:25;;;;;;;;;8.00;7.00;;;;;10.60;100.00;102986.53;6332336;22;46050;-90
2022/02/26 09:07:51;;;;;;;;;7.50;7.25;;;;;10.76;100.00;102979.00;6359101;22;45320;-90
2022/02/26 09:10:16;;;;;;;;;7.50;6.00;;;;;10.90;100.00;102969.59;6333326;22;45481;-93
2022/02/26 09:12:42;;;;;;;;;11.33;7.33;;;;;10.94;100.00;102963.78;6357398;22;47193;-91
2022/02/26 09:15:08;;;;;;;;;11.25;9.50;;;;;10.98;100.00;102971.09;6334056;22;45284;-89
2022/02/26 09:17:34;;;;;;;;;8.50;8.00;;;;;11.10;100.00;102981.69;6335241;22;45280;-93
2022/02/26 09:19:59;;;;;;;;;10.50;7.75;;;;;11.10;100.00;102978.16;6360371;22;45237;-93
2022/02/26 09:22:24;;;;;;;;;11.50;7.75;;;;;11.14;100.00;102970.63;6334377;22;45470;-90
2022/02/26 09:24:50;;;;;;;;;7.33;7.00;;;;;11.18;100.00;102971.81;6334274;22;45311;-90
2022/02/26 09:27:15;;;;;;;;;8.00;8.00;;;;;11.31;100.00;102978.94;6332824;22;45418;-90
2022/02/26 09:29:40;;;;;;;;;10.33;6.33;;;;;11.42;100.00;102984.09;6335011;22;45404;-90
2022/02/26 09:32:07;;;;;;;;;7.67;7.00;;;;;11.45;100.00;102977.38;6333908;22;46098;-91
2022/02/26 09:34:32;;;;;;;;;8.00;6.33;;;;;11.56;100.00;102975.59;6332340;22;45337;-89
2022/02/26 09:36:57;;;;;;;;;10.00;6.33;;;;;11.65;100.00;102974.47;6334204;22;45290;-90
2022/02/26 09:39:23;;;;;;;;;6.33;4.33;;;;;11.65;100.00;102971.84;6336290;22;45296;-90
2022/02/26 09:41:50;;;;;;;;;8.00;8.00;;;;;11.64;100.00;102968.28;6331574;22;48036;-89
2022/02/26 09:44:16;;;;;;;;;9.00;6.33;;;;;11.62;100.00;102967.25;6335051;22;45370;-91
2022/02/26 09:46:42;;;;;;;;;4.67;4.67;;;;;11.61;100.00;102957.53;6335104;22;45202;-89
2022/02/26 09:49:07;;;;;;;;;7.00;4.33;;;;;11.58;100.00;102955.56;6332421;22;45285;-91
2022/02/26 09:51:34;;;;;;;;;6.00;6.00;;;;;11.59;100.00;102962.69;6334432;22;46388;-92
2022/02/26 09:53:59;;;;;;;;;9.33;7.67;;;;;11.58;100.00;102960.84;6334122;22;45251;-88
2022/02/26 09:56:25;;;;;;;;;8.67;7.00;;;;;11.60;100.00;102953.03;6330094;22;45344;-94
2022/02/26 09:58:51;;;;;;;;;8.67;7.00;;;;;11.62;100.00;102944.47;6358235;22;45205;-90
2022/02/26 10:01:17;;;;;;;;;4.00;2.67;;;;;11.67;100.00;102963.28;6332903;22;45406;-92
2022/02/26 10:03:42;;;;;;;;;3.33;3.00;;;;;11.73;100.00;102965.44;6330685;22;45300;-87
2022/02/26 10:06:14;;;;;;;;;6.00;4.67;;;;;11.79;100.00;102960.66;6333056;22;45339;-87
2022/02/26 10:08:40;;;;;;;;;5.33;4.33;;;;;11.80;100.00;102956.31;6334430;22;45341;-88
2022/02/26 10:11:06;;;;;;;;;7.33;7.33;;;;;11.85;100.00;102962.84;6331548;22;45421;-89
2022/02/26 10:13:44;;;;;;;;;8.33;6.00;;;;;11.89;100.00;102956.06;6331548;22;45375;-91
2022/02/26 10:16:09;;;;;;;;;4.33;4.33;;;;;11.87;100.00;102955.97;6331991;22;45336;-91
2022/02/26 10:18:35;;;;;;;;;6.00;3.00;;;;;11.87;100.00;102945.44;6332298;22;45413;-90
2022/02/26 10:21:02;;;;;;;;;2.00;2.00;;;;;11.91;100.00;102950.13;6332950;22;46566;-92
2022/02/26 10:23:28;;;;;;;;;7.00;4.00;;;;;11.96;100.00;102953.09;6334480;22;45256;-91
2022/02/26 10:26:06;;;;;;;;;4.33;4.33;;;;;12.05;100.00;102945.91;6356722;22;45704;-92
2022/02/26 10:28:33;;;;;;;;;6.00;4.33;;;;;12.02;100.00;102948.31;6332678;22;45446;-91
2022/02/26 10:31:02;;;;;;;;;8.00;4.00;;;;;12.13;100.00;102950.81;6331867;22;47395;-91
2022/02/26 10:33:28;;;;;;;;;7.00;4.00;;;;;12.17;100.00;102942.38;6334421;22;45398;-91
2022/02/26 10:35:56;;;;;;;;;3.00;3.00;;;;;12.27;100.00;102947.53;6333578;22;45410;-92
2022/02/26 10:38:27;;;;;;;;;4.33;2.67;;;;;12.31;100.00;102932.88;6332655;22;45521;-92
2022/02/26 10:41:03;;;;;;;;;4.33;3.00;;;;;12.35;100.00;102937.56;6332195;22;45362;-91
2022/02/26 10:43:39;;;;;;;;;8.00;6.33;;;;;12.47;100.00;102947.19;6334431;22;45521;-91
2022/02/26 10:46:30;;;;;;;;;4.00;4.00;;;;;12.52;100.00;102940.53;6332175;22;45368;-92
2022/02/26 10:49:07;;;;;;;;;4.00;3.00;;;;;12.48;100.00;102938.47;6334578;22;45314;-91
2022/02/26 10:51:38;;;;;;;;;5.00;5.00;;;;;12.59;100.00;102921.72;6334267;22;45234;-91
2022/02/26 10:54:10;;;;;;;;;6.00;6.00;;;;;12.64;100.00;102916.78;6332299;22;45354;-91
2022/02/26 10:56:37;;;;;;;;;6.67;3.00;;;;;12.67;100.00;102921.34;6330460;22;45358;-91
2022/02/26 10:59:04;;;;;;;;;8.67;6.33;;;;;12.72;100.00;102923.53;6332252;22;45837;-92
2022/02/26 11:01:30;;;;;;;;;6.00;6.00;;;;;12.76;100.00;102923.72;6334076;22;46075;-92
2022/02/26 11:03:57;;;;;;;;;4.00;3.00;;;;;12.79;100.00;102905.50;6334301;22;45342;-92
2022/02/26 11:06:24;;;;;;;;;3.67;3.00;;;;;12.84;100.00;102919.91;6334370;22;45458;-91